createdAt,value
2022-12-17T00:01:56.695Z,16.53
2022-12-17T00:04:17.097Z,17.23
2022-12-17T00:06:37.917Z,16.47
2022-12-17T00:08:58.525Z,16.90
2022-12-17T00:11:19.065Z,16.30
2022-12-17T00:13:41.578Z,16.90
2022-12-17T00:16:09.864Z,16.17
2022-12-17T00:18:30.291Z,17.60
2022-12-17T00:20:53.208Z,17.33
2022-12-17T00:23:18.128Z,16.80
2022-12-17T00:25:38.437Z,16.57
2022-12-17T00:27:58.993Z,17.67
2022-12-17T00:30:19.248Z,16.47
2022-12-17T00:32:40.990Z,17.70
2022-12-17T00:35:01.645Z,17.37
2022-12-17T00:37:22.010Z,17.13
2022-12-17T00:39:42.551Z,18.60
2022-12-17T00:42:02.857Z,18.17
2022-12-17T00:44:23.334Z,17.17
2022-12-17T00:46:43.689Z,17.30
2022-12-17T00:49:05.705Z,16.77
2022-12-17T00:51:25.919Z,16.93
2022-12-17T00:53:46.195Z,17.27
2022-12-17T00:56:06.758Z,15.90
2022-12-17T00:58:27.177Z,16.97
2022-12-17T01:00:47.978Z,16.60
2022-12-17T01:03:08.645Z,16.50
2022-12-17T01:05:31.064Z,16.13
2022-12-17T01:07:52.639Z,16.33
2022-12-17T01:10:13.155Z,16.03
2022-12-17T01:12:33.536Z,16.73
2022-12-17T01:14:54.908Z,17.00
2022-12-17T01:17:15.306Z,15.77
2022-12-17T01:19:36.056Z,16.23
2022-12-17T01:21:57.246Z,16.73
2022-12-17T01:24:17.448Z,15.70
2022-12-17T01:26:37.750Z,16.83
2022-12-17T01:28:58.463Z,15.47
2022-12-17T01:31:18.915Z,17.30
2022-12-17T01:33:39.682Z,16.33
2022-12-17T01:36:00.438Z,16.07
2022-12-17T01:38:22.225Z,15.83
2022-12-17T01:40:44.716Z,13.70
2022-12-17T01:43:05.994Z,15.17
2022-12-17T01:45:30.015Z,14.97
2022-12-17T01:47:53.788Z,14.83
2022-12-17T01:50:31.758Z,14.73
2022-12-17T01:52:52.679Z,15.67
2022-12-17T01:55:11.220Z,14.47
2022-12-17T01:57:46.607Z,16.23
2022-12-17T02:00:18.957Z,15.63
2022-12-17T02:02:39.854Z,14.53
2022-12-17T02:05:00.612Z,14.07
2022-12-17T02:07:38.954Z,14.73
2022-12-17T02:10:05.461Z,13.37
2022-12-17T02:12:36.066Z,14.37
2022-12-17T02:15:19.920Z,13.90
2022-12-17T02:17:43.863Z,13.57
2022-12-17T02:20:23.505Z,14.30
2022-12-17T02:22:48.744Z,14.63
2022-12-17T02:25:14.142Z,14.00
2022-12-17T02:27:36.377Z,14.37
2022-12-17T02:30:01.711Z,14.00
2022-12-17T02:32:24.968Z,14.17
2022-12-17T02:34:45.855Z,13.37
2022-12-17T02:37:06.987Z,12.90
2022-12-17T02:39:27.387Z,12.23
2022-12-17T02:42:01.710Z,11.63
2022-12-17T02:44:24.942Z,11.47
2022-12-17T02:46:45.983Z,12.63
2022-12-17T02:49:06.669Z,11.10
2022-12-17T02:51:27.456Z,10.47
2022-12-17T02:53:50.577Z,10.37
2022-12-17T02:56:11.147Z,9.77
2022-12-17T02:58:31.532Z,9.40
2022-12-17T03:00:53.446Z,9.23
2022-12-17T03:03:13.957Z,8.87
2022-12-17T03:05:49.830Z,9.03
2022-12-17T03:08:10.396Z,8.60
2022-12-17T03:10:35.965Z,7.90
2022-12-17T03:12:56.614Z,8.00
2022-12-17T03:15:16.912Z,7.77
2022-12-17T03:17:38.847Z,7.20
2022-12-17T03:19:59.287Z,6.97
2022-12-17T03:22:19.915Z,7.20
2022-12-17T03:24:40.280Z,7.07
2022-12-17T03:27:00.751Z,7.23
2022-12-17T03:29:21.026Z,8.40
2022-12-17T03:31:41.977Z,8.43
2022-12-17T03:34:04.346Z,6.83
2022-12-17T03:36:25.630Z,7.07
2022-12-17T03:38:46.270Z,7.03
2022-12-17T03:41:09.335Z,7.77
2022-12-17T03:43:30.664Z,7.70
2022-12-17T03:45:51.052Z,7.83
2022-12-17T03:48:21.301Z,8.90
2022-12-17T03:50:43.311Z,9.27
2022-12-17T03:53:05.443Z,15.70
2022-12-17T03:55:27.042Z,12.40
2022-12-17T03:57:47.339Z,16.73
2022-12-17T04:00:07.886Z,16.10
2022-12-17T04:02:42.980Z,18.53
2022-12-17T04:05:03.558Z,18.90
2022-12-17T04:07:25.473Z,19.90
2022-12-17T04:09:45.943Z,18.70
2022-12-17T04:12:17.729Z,18.17
2022-12-17T04:14:46.382Z,18.47
2022-12-17T04:17:06.901Z,18.60
2022-12-17T04:19:27.279Z,17.80
2022-12-17T04:21:47.729Z,16.90
2022-12-17T04:24:09.539Z,17.80
2022-12-17T04:26:30.241Z,17.87
2022-12-17T04:28:50.553Z,16.60
2022-12-17T04:31:11.167Z,17.00
2022-12-17T04:33:30.795Z,15.67
2022-12-17T04:35:51.464Z,17.37
2022-12-17T04:38:12.050Z,17.00
2022-12-17T04:40:34.323Z,15.80
2022-12-17T04:42:54.665Z,13.77
2022-12-17T04:45:15.215Z,13.67
2022-12-17T04:47:37.836Z,15.03
2022-12-17T04:49:57.997Z,14.40
2022-12-17T04:52:18.407Z,14.53
2022-12-17T04:54:38.852Z,13.63
2022-12-17T04:57:00.355Z,12.10
2022-12-17T04:59:20.625Z,12.87
2022-12-17T05:01:41.006Z,12.90
2022-12-17T05:04:01.887Z,13.23
2022-12-17T05:06:22.602Z,12.97
2022-12-17T05:08:46.399Z,13.20
2022-12-17T05:11:07.016Z,12.00
2022-12-17T05:13:29.237Z,12.67
2022-12-17T05:15:53.169Z,13.30
2022-12-17T05:18:22.113Z,13.60
2022-12-17T05:20:42.411Z,13.50
2022-12-17T05:23:02.628Z,12.93
2022-12-17T05:25:24.172Z,12.83
2022-12-17T05:27:44.310Z,13.30
2022-12-17T05:30:06.235Z,13.17
2022-12-17T05:32:26.611Z,13.37
2022-12-17T05:34:47.143Z,11.90
2022-12-17T05:37:07.767Z,12.10
2022-12-17T05:39:28.449Z,12.50
2022-12-17T05:41:48.897Z,12.00
2022-12-17T05:44:09.254Z,12.03
2022-12-17T05:46:31.150Z,11.77
2022-12-17T05:48:52.605Z,11.67
2022-12-17T05:51:12.855Z,13.03
2022-12-17T05:53:33.543Z,11.67
2022-12-17T05:55:54.340Z,12.57
2022-12-17T05:58:23.066Z,12.07
2022-12-17T06:00:43.349Z,11.53
2022-12-17T06:03:04.997Z,12.03
2022-12-17T06:05:26.978Z,10.77
2022-12-17T06:07:47.585Z,11.90
2022-12-17T06:10:07.811Z,12.63
2022-12-17T06:12:28.093Z,11.93
2022-12-17T06:14:48.803Z,12.70
2022-12-17T06:17:09.093Z,11.70
2022-12-17T06:19:30.833Z,12.90
2022-12-17T06:21:51.234Z,12.20
2022-12-17T06:24:11.926Z,11.80
2022-12-17T06:26:32.587Z,11.73
2022-12-17T06:28:53.347Z,13.20
2022-12-17T06:31:14.120Z,12.47
2022-12-17T06:33:37.191Z,12.00
2022-12-17T06:35:58.784Z,12.33
2022-12-17T06:38:19.823Z,12.03
2022-12-17T06:40:42.285Z,12.13
2022-12-17T06:43:11.797Z,13.73
2022-12-17T06:45:32.239Z,13.77
2022-12-17T06:47:52.555Z,15.10
2022-12-17T06:50:12.901Z,15.37
2022-12-17T06:52:34.987Z,13.93
2022-12-17T06:54:55.304Z,14.10
2022-12-17T06:57:15.657Z,14.60
2022-12-17T06:59:36.339Z,13.83
2022-12-17T07:01:56.787Z,13.50
2022-12-17T07:04:17.104Z,13.43
2022-12-17T07:06:37.600Z,13.83
2022-12-17T07:08:59.485Z,12.67
2022-12-17T07:11:20.886Z,13.00
2022-12-17T07:13:41.195Z,13.33
2022-12-17T07:16:01.932Z,13.33
2022-12-17T07:18:23.139Z,13.90
2022-12-17T07:20:43.496Z,12.90
2022-12-17T07:23:03.815Z,13.23
2022-12-17T07:25:26.484Z,14.23
2022-12-17T07:27:47.244Z,17.80
2022-12-17T07:30:07.738Z,22.47
2022-12-17T07:32:28.279Z,20.10
2022-12-17T07:34:48.860Z,19.20
2022-12-17T07:37:09.123Z,15.17
2022-12-17T07:39:29.652Z,13.13
2022-12-17T07:41:51.310Z,12.67
2022-12-17T07:44:14.342Z,13.10
2022-12-17T07:46:34.823Z,13.43
2022-12-17T07:48:55.293Z,13.70
2022-12-17T07:51:15.819Z,14.80
2022-12-17T07:53:36.558Z,18.67
2022-12-17T07:55:57.298Z,17.53
2022-12-17T07:58:21.823Z,17.80
2022-12-17T08:00:47.539Z,18.07
2022-12-17T08:03:15.794Z,16.07
2022-12-17T08:05:36.528Z,15.00
2022-12-17T08:07:59.908Z,17.77
2022-12-17T08:10:20.368Z,18.87
2022-12-17T08:12:40.673Z,16.73
2022-12-17T08:15:02.513Z,16.83
2022-12-17T08:17:23.042Z,14.43
2022-12-17T08:19:43.846Z,15.93
2022-12-17T08:22:04.633Z,14.27
2022-12-17T08:24:27.592Z,14.13
2022-12-17T08:26:48.554Z,12.13
2022-12-17T08:29:09.172Z,12.60
2022-12-17T08:31:30.790Z,12.17
2022-12-17T08:33:51.294Z,13.97
2022-12-17T08:36:12.991Z,13.00
2022-12-17T08:38:33.708Z,13.43
2022-12-17T08:40:54.119Z,12.93
2022-12-17T08:43:17.809Z,19.17
2022-12-17T08:45:38.387Z,20.70
2022-12-17T08:48:03.896Z,15.97
2022-12-17T08:50:40.559Z,15.33
2022-12-17T08:53:01.208Z,14.30
2022-12-17T08:55:24.357Z,15.37
2022-12-17T08:57:46.126Z,15.40
2022-12-17T09:00:07.318Z,15.73
2022-12-17T09:02:28.762Z,13.40
2022-12-17T09:04:50.892Z,16.33
2022-12-17T09:07:11.846Z,15.30
2022-12-17T09:09:32.126Z,14.67
2022-12-17T09:11:52.406Z,14.77
2022-12-17T09:14:12.784Z,15.97
2022-12-17T09:16:33.547Z,15.80
2022-12-17T09:18:54.449Z,14.07
2022-12-17T09:21:16.276Z,15.63
2022-12-17T09:23:39.603Z,15.40
2022-12-17T09:26:00.417Z,16.10
2022-12-17T09:28:21.538Z,15.70
2022-12-17T09:30:42.309Z,15.60
2022-12-17T09:33:02.854Z,15.43
2022-12-17T09:35:23.864Z,15.93
2022-12-17T09:37:45.511Z,15.23
2022-12-17T09:40:11.312Z,15.87
2022-12-17T09:42:38.624Z,15.83
2022-12-17T09:45:05.884Z,19.37
2022-12-17T09:47:36.347Z,23.43
2022-12-17T09:49:57.476Z,19.57
2022-12-17T09:52:17.984Z,17.87
2022-12-17T09:54:47.230Z,16.97
2022-12-17T09:57:09.141Z,15.83
2022-12-17T09:59:38.437Z,15.77
2022-12-17T10:01:59.089Z,15.90
2022-12-17T10:04:21.092Z,16.43
2022-12-17T10:06:46.185Z,23.90
2022-12-17T10:09:09.601Z,18.20
2022-12-17T10:11:38.686Z,17.63
2022-12-17T10:13:58.946Z,18.13
2022-12-17T10:16:22.215Z,20.43
2022-12-17T10:18:43.045Z,21.83
2022-12-17T10:21:10.759Z,20.17
2022-12-17T10:23:42.426Z,20.37
2022-12-17T10:26:09.546Z,19.00
2022-12-17T10:28:33.284Z,17.67
2022-12-17T10:30:54.658Z,16.43
2022-12-17T10:33:15.162Z,16.60
2022-12-17T10:35:38.050Z,15.93
2022-12-17T10:37:59.001Z,15.60
2022-12-17T10:40:21.807Z,15.70
2022-12-17T10:42:45.076Z,16.93
2022-12-17T10:45:06.941Z,16.93
2022-12-17T10:47:33.220Z,17.10
2022-12-17T10:49:53.475Z,17.70
2022-12-17T10:52:18.874Z,18.70
2022-12-17T10:54:48.709Z,18.47
2022-12-17T10:57:11.979Z,20.90
2022-12-17T10:59:48.531Z,21.50
2022-12-17T11:02:16.847Z,21.90
2022-12-17T11:04:43.491Z,23.10
2022-12-17T11:07:06.396Z,27.73
2022-12-17T11:09:35.169Z,31.73
2022-12-17T11:11:56.443Z,34.80
2022-12-17T11:14:21.771Z,37.73
2022-12-17T11:16:44.820Z,35.13
2022-12-17T11:19:11.841Z,40.50
2022-12-17T11:21:38.307Z,42.87
2022-12-17T11:24:05.451Z,40.50
2022-12-17T11:26:30.784Z,38.47
2022-12-17T11:28:54.187Z,34.50
2022-12-17T11:31:29.384Z,32.20
2022-12-17T11:33:56.770Z,31.57
2022-12-17T11:36:41.062Z,32.97
2022-12-17T11:39:09.923Z,31.33
2022-12-17T11:41:37.096Z,30.87
2022-12-17T11:44:05.167Z,27.90
2022-12-17T11:46:37.311Z,30.23
2022-12-17T11:49:04.812Z,27.40
2022-12-17T11:51:35.648Z,27.87
2022-12-17T11:54:06.599Z,25.10
2022-12-17T11:56:37.608Z,24.90
2022-12-17T11:59:12.195Z,27.87
2022-12-17T12:01:39.071Z,29.70
2022-12-17T12:04:12.123Z,28.07
2022-12-17T12:06:41.518Z,26.97
2022-12-17T12:09:11.884Z,26.73
2022-12-17T12:11:55.132Z,32.00
2022-12-17T12:14:26.436Z,28.27
2022-12-17T12:16:54.186Z,25.93
2022-12-17T12:19:23.379Z,25.67
2022-12-17T12:21:59.139Z,25.13
2022-12-17T12:24:29.418Z,24.60
2022-12-17T12:27:01.193Z,24.73
2022-12-17T12:29:34.825Z,22.83
2022-12-17T12:32:03.693Z,24.30
2022-12-17T12:34:30.621Z,24.33
2022-12-17T12:36:56.326Z,25.50
2022-12-17T12:39:18.033Z,23.87
2022-12-17T12:41:48.224Z,25.00
2022-12-17T12:44:13.924Z,24.37
2022-12-17T12:46:39.483Z,25.10
2022-12-17T12:49:06.651Z,25.50
2022-12-17T12:51:34.476Z,23.73
2022-12-17T12:53:57.247Z,25.07
2022-12-17T12:56:19.168Z,24.17
2022-12-17T12:58:44.972Z,24.30
2022-12-17T13:01:13.779Z,23.83
2022-12-17T13:03:47.955Z,23.33
2022-12-17T13:05:50.402Z,28.47
2022-12-17T13:08:03.617Z,28.67
2022-12-17T13:10:25.855Z,29.23
2022-12-17T13:12:34.178Z,28.33
2022-12-17T13:14:49.894Z,25.97
2022-12-17T13:16:58.983Z,24.97
2022-12-17T13:19:20.311Z,24.30
2022-12-17T13:21:29.659Z,23.07
2022-12-17T13:23:38.207Z,23.20
2022-12-17T13:25:42.946Z,22.37
2022-12-17T13:27:46.674Z,22.53
2022-12-17T13:29:49.630Z,25.40
2022-12-17T13:32:17.183Z,27.17
2022-12-17T13:34:28.897Z,43.90
2022-12-17T13:36:39.239Z,33.73
2022-12-17T13:38:53.420Z,31.60
2022-12-17T13:41:10.081Z,23.60
2022-12-17T13:43:24.094Z,21.30
2022-12-17T13:45:33.714Z,20.63
2022-12-17T13:47:38.359Z,21.57
2022-12-17T13:49:41.653Z,20.97
2022-12-17T13:51:45.155Z,21.77
2022-12-17T13:53:54.864Z,21.47
2022-12-17T13:56:01.268Z,21.50
2022-12-17T13:58:04.303Z,20.70
2022-12-17T14:00:08.580Z,21.27
2022-12-17T14:02:25.436Z,23.97
2022-12-17T14:04:30.885Z,28.77
2022-12-17T14:06:37.625Z,24.17
2022-12-17T14:08:44.442Z,26.60
2022-12-17T14:10:51.913Z,25.03
2022-12-17T14:13:05.863Z,21.23
2022-12-17T14:15:23.467Z,20.60
2022-12-17T14:17:28.017Z,22.17
2022-12-17T14:19:33.359Z,19.83
2022-12-17T14:21:39.959Z,20.87
2022-12-17T14:23:46.772Z,19.17
2022-12-17T14:25:51.193Z,23.43
2022-12-17T14:27:56.761Z,46.43
2022-12-17T14:30:02.026Z,23.27
2022-12-17T14:32:25.099Z,23.77
2022-12-17T14:34:31.255Z,21.93
2022-12-17T14:36:38.206Z,19.90
2022-12-17T14:38:50.656Z,17.80
2022-12-17T14:40:54.938Z,18.47
2022-12-17T14:42:59.949Z,17.47
2022-12-17T14:45:08.223Z,17.43
2022-12-17T14:47:18.230Z,16.70
2022-12-17T14:49:23.643Z,15.37
2022-12-17T14:51:32.582Z,16.30
2022-12-17T14:53:35.774Z,15.40
2022-12-17T14:55:40.287Z,14.93
2022-12-17T14:57:43.232Z,14.37
2022-12-17T14:59:46.316Z,15.37
2022-12-17T15:01:55.752Z,19.13
2022-12-17T15:03:59.558Z,29.83
2022-12-17T15:06:04.368Z,17.17
2022-12-17T15:08:07.753Z,24.00
2022-12-17T15:10:12.458Z,23.50
2022-12-17T15:12:15.451Z,21.10
2022-12-17T15:14:18.459Z,17.73
2022-12-17T15:16:21.695Z,16.30
2022-12-17T15:18:26.546Z,18.50
2022-12-17T15:20:29.587Z,19.90
2022-12-17T15:22:32.504Z,19.07
2022-12-17T15:24:35.487Z,19.67
2022-12-17T15:26:38.409Z,20.53
2022-12-17T15:28:43.480Z,22.63
2022-12-17T15:30:47.349Z,26.20
2022-12-17T15:32:50.397Z,26.27
2022-12-17T15:34:54.717Z,26.83
2022-12-17T15:36:57.640Z,29.87
2022-12-17T15:39:01.736Z,28.73
2022-12-17T15:41:26.197Z,28.53
2022-12-17T15:43:28.156Z,25.07
2022-12-17T15:45:32.477Z,23.37
2022-12-17T15:47:35.570Z,21.13
2022-12-17T15:49:38.873Z,21.27
2022-12-17T15:51:43.281Z,22.63
2022-12-17T15:53:47.684Z,22.00
2022-12-17T15:55:50.588Z,25.33
2022-12-17T15:57:53.519Z,28.83
2022-12-17T15:59:56.495Z,26.07
2022-12-17T16:01:59.639Z,25.50
2022-12-17T16:04:02.746Z,23.67
2022-12-17T16:06:05.936Z,23.20
2022-12-17T16:08:10.336Z,20.53
2022-12-17T16:10:14.808Z,22.20
2022-12-17T16:12:17.784Z,21.27
2022-12-17T16:14:20.907Z,21.57
2022-12-17T16:16:24.652Z,20.43
2022-12-17T16:18:27.788Z,19.20
2022-12-17T16:20:31.045Z,17.67
2022-12-17T16:22:37.510Z,16.60
2022-12-17T16:24:43.268Z,15.97
2022-12-17T16:26:46.567Z,16.13
2022-12-17T16:28:50.176Z,17.13
2022-12-17T16:31:01.162Z,18.90
2022-12-17T16:33:04.445Z,19.27
2022-12-17T16:35:10.528Z,18.60
2022-12-17T16:37:13.791Z,20.13
2022-12-17T16:39:18.524Z,21.27
2022-12-17T16:41:23.893Z,19.03
2022-12-17T16:43:28.406Z,20.13
2022-12-17T16:45:31.587Z,19.93
2022-12-17T16:47:35.127Z,20.30
2022-12-17T16:49:38.089Z,21.33
2022-12-17T16:51:41.577Z,21.57
2022-12-17T16:53:44.592Z,22.33
2022-12-17T16:55:50.128Z,20.80
2022-12-17T16:57:54.544Z,21.33
2022-12-17T16:59:57.614Z,20.50
2022-12-17T17:02:00.727Z,20.33
2022-12-17T17:04:05.572Z,20.60
2022-12-17T17:06:08.744Z,20.77
2022-12-17T17:08:11.616Z,19.37
2022-12-17T17:10:14.634Z,19.10
2022-12-17T17:12:17.672Z,20.57
2022-12-17T17:14:22.314Z,20.33
2022-12-17T17:16:26.366Z,24.03
2022-12-17T17:18:29.651Z,19.50
2022-12-17T17:20:33.009Z,17.67
2022-12-17T17:22:36.024Z,19.07
2022-12-17T17:24:39.037Z,17.57
2022-12-17T17:26:41.972Z,14.23
2022-12-17T17:28:47.014Z,14.30
2022-12-17T17:30:51.343Z,13.03
2022-12-17T17:32:57.798Z,12.53
2022-12-17T17:35:00.782Z,11.30
2022-12-17T17:37:03.912Z,11.67
2022-12-17T17:39:07.321Z,9.90
2022-12-17T17:41:12.371Z,10.43
2022-12-17T17:43:15.309Z,9.97
2022-12-17T17:45:18.312Z,10.73
2022-12-17T17:47:22.680Z,11.50
2022-12-17T17:49:25.595Z,11.80
2022-12-17T17:52:07.159Z,9.93
2022-12-17T17:53:55.087Z,11.80
2022-12-17T17:56:03.969Z,11.53
2022-12-17T17:58:06.890Z,11.57
2022-12-17T18:00:11.454Z,12.10
2022-12-17T18:02:14.794Z,12.90
2022-12-17T18:04:24.266Z,12.53
2022-12-17T18:06:27.830Z,16.90
2022-12-17T18:08:31.480Z,14.63
2022-12-17T18:10:34.720Z,13.37
2022-12-17T18:12:55.300Z,11.67
2022-12-17T18:15:13.772Z,12.53
2022-12-17T18:17:17.775Z,13.17
2022-12-17T18:19:23.275Z,12.63
2022-12-17T18:21:27.825Z,13.40
2022-12-17T18:23:30.901Z,13.20
2022-12-17T18:25:37.679Z,13.60
2022-12-17T18:27:41.263Z,13.53
2022-12-17T18:29:44.388Z,13.43
2022-12-17T18:31:51.666Z,12.50
2022-12-17T18:33:58.393Z,14.70
2022-12-17T18:36:03.002Z,13.30
2022-12-17T18:38:05.906Z,12.53
2022-12-17T18:40:09.932Z,13.40
2022-12-17T18:42:30.121Z,13.83
2022-12-17T18:44:36.362Z,12.97
2022-12-17T18:46:39.966Z,12.83
2022-12-17T18:48:42.976Z,10.83
2022-12-17T18:50:45.930Z,10.03
2022-12-17T18:52:50.293Z,10.90
2022-12-17T18:54:53.225Z,9.87
2022-12-17T18:57:01.937Z,9.63
2022-12-17T18:59:06.245Z,9.27
2022-12-17T19:01:18.685Z,9.50
2022-12-17T19:03:21.920Z,8.80
2022-12-17T19:05:24.859Z,9.50
2022-12-17T19:07:27.831Z,9.20
2022-12-17T19:09:35.640Z,12.10
2022-12-17T19:11:43.397Z,14.67
2022-12-17T19:13:47.510Z,12.23
2022-12-17T19:15:50.395Z,10.00
2022-12-17T19:17:53.366Z,10.23
2022-12-17T19:19:56.321Z,9.47
2022-12-17T19:22:00.174Z,10.10
2022-12-17T19:24:05.635Z,10.13
2022-12-17T19:26:11.731Z,10.73
2022-12-17T19:28:14.682Z,9.50
2022-12-17T19:30:17.811Z,8.53
2022-12-17T19:32:20.725Z,8.80
2022-12-17T19:34:23.721Z,9.13
2022-12-17T19:36:28.866Z,8.40
2022-12-17T19:38:32.165Z,8.53
2022-12-17T19:40:36.015Z,7.93
2022-12-17T19:42:40.235Z,7.30
2022-12-17T19:44:43.222Z,7.93
2022-12-17T19:46:47.912Z,9.00
2022-12-17T19:48:52.491Z,8.53
2022-12-17T19:50:57.074Z,8.83
2022-12-17T19:53:00.032Z,7.97
2022-12-17T19:55:03.891Z,9.40
2022-12-17T19:57:06.924Z,9.17
2022-12-17T19:59:14.037Z,9.17
2022-12-17T20:01:19.486Z,8.83
2022-12-17T20:03:22.671Z,9.23
2022-12-17T20:05:25.615Z,9.97
2022-12-17T20:07:28.598Z,10.10
2022-12-17T20:09:31.667Z,12.10
2022-12-17T20:11:35.667Z,9.97
2022-12-17T20:13:39.029Z,10.40
2022-12-17T20:15:43.301Z,10.63
2022-12-17T20:17:46.193Z,11.07
2022-12-17T20:19:52.280Z,12.47
2022-12-17T20:21:55.855Z,12.60
2022-12-17T20:23:58.997Z,11.63
2022-12-17T20:26:06.067Z,10.90
2022-12-17T20:28:08.993Z,10.87
2022-12-17T20:30:12.619Z,11.63
2022-12-17T20:32:19.552Z,11.97
2022-12-17T20:34:25.179Z,12.47
2022-12-17T20:36:28.958Z,12.90
2022-12-17T20:38:32.012Z,12.40
2022-12-17T20:40:35.314Z,11.37
2022-12-17T20:42:38.529Z,12.07
2022-12-17T20:44:41.798Z,12.87
2022-12-17T20:46:44.802Z,11.30
2022-12-17T20:48:49.693Z,11.47
2022-12-17T20:50:52.800Z,11.40
2022-12-17T20:52:55.760Z,12.13
2022-12-17T20:55:01.010Z,12.30
2022-12-17T20:57:03.950Z,13.13
2022-12-17T20:59:08.795Z,12.37
2022-12-17T21:01:14.228Z,27.27
2022-12-17T21:03:17.474Z,20.50
2022-12-17T21:05:21.911Z,14.00
2022-12-17T21:07:24.824Z,12.33
2022-12-17T21:09:27.776Z,13.37
2022-12-17T21:11:32.481Z,12.80
2022-12-17T21:13:36.157Z,14.13
2022-12-17T21:15:39.334Z,20.03
2022-12-17T21:17:42.342Z,16.97
2022-12-17T21:19:45.344Z,14.77
2022-12-17T21:21:49.737Z,15.00
2022-12-17T21:23:53.984Z,14.73
2022-12-17T21:26:01.564Z,14.67
2022-12-17T21:28:05.769Z,14.03
2022-12-17T21:30:11.524Z,13.30
2022-12-17T21:32:16.591Z,12.53
2022-12-17T21:34:22.737Z,12.60
2022-12-17T21:36:26.882Z,12.63
2022-12-17T21:38:33.487Z,13.30
2022-12-17T21:40:36.918Z,13.10
2022-12-17T21:42:57.261Z,12.37
2022-12-17T21:45:00.632Z,12.47
2022-12-17T21:47:03.824Z,12.13
2022-12-17T21:49:06.786Z,12.20
2022-12-17T21:51:12.726Z,12.33
2022-12-17T21:53:16.455Z,12.00
2022-12-17T21:55:21.416Z,12.50
2022-12-17T21:57:24.413Z,11.77
2022-12-17T21:59:27.484Z,10.73
2022-12-17T22:01:32.683Z,11.17
2022-12-17T22:03:35.718Z,11.97
2022-12-17T22:05:39.036Z,12.43
2022-12-17T22:07:44.091Z,11.20
2022-12-17T22:10:21.394Z,11.27
2022-12-17T22:12:39.234Z,12.30
2022-12-17T22:14:43.427Z,12.30
2022-12-17T22:16:49.136Z,13.57
2022-12-17T22:18:53.170Z,12.40
2022-12-17T22:21:00.044Z,13.40
2022-12-17T22:23:04.710Z,14.67
2022-12-17T22:25:10.331Z,12.97
2022-12-17T22:27:17.079Z,12.97
2022-12-17T22:29:33.937Z,13.83
2022-12-17T22:31:54.491Z,14.13
2022-12-17T22:35:14.951Z,13.47
2022-12-17T22:38:50.915Z,14.13
2022-12-17T22:42:35.438Z,14.20
2022-12-17T22:44:09.775Z,13.37
2022-12-17T22:44:45.005Z,14.13
2022-12-17T22:46:00.335Z,11.93
2022-12-17T22:48:03.816Z,11.90
2022-12-17T22:50:07.672Z,11.50
2022-12-17T22:52:11.580Z,10.80
2022-12-17T22:54:15.370Z,11.23
2022-12-17T22:56:31.956Z,12.10
2022-12-17T22:58:43.540Z,10.90
2022-12-17T23:00:46.659Z,10.33
2022-12-17T23:02:52.249Z,10.80
2022-12-17T23:04:55.328Z,10.90
2022-12-17T23:06:58.372Z,10.60
2022-12-17T23:09:01.370Z,12.90
2022-12-17T23:11:08.012Z,11.63
2022-12-17T23:13:11.027Z,11.33
2022-12-17T23:15:15.308Z,10.80
2022-12-17T23:17:18.184Z,10.93
2022-12-17T23:19:21.059Z,10.60
2022-12-17T23:21:26.220Z,11.23
2022-12-17T23:23:29.161Z,11.53
2022-12-17T23:25:32.568Z,10.57
2022-12-17T23:27:35.641Z,9.87
2022-12-17T23:29:38.554Z,11.20
2022-12-17T23:31:42.934Z,10.20
2022-12-17T23:33:46.383Z,10.10
2022-12-17T23:35:49.342Z,10.40
2022-12-17T23:37:52.404Z,9.70
2022-12-17T23:39:55.348Z,9.83
2022-12-17T23:41:58.342Z,9.90
2022-12-17T23:44:01.583Z,10.10
2022-12-17T23:46:05.090Z,9.87
2022-12-17T23:48:09.739Z,10.77
2022-12-17T23:50:13.601Z,9.97
2022-12-17T23:52:16.655Z,9.13
2022-12-17T23:54:19.664Z,9.03
2022-12-17T23:56:24.582Z,9.40
2022-12-17T23:58:27.798Z,10.10
